createdAt,value
2022-08-17T00:02:26.250Z,4.40
2022-08-17T00:05:33.270Z,4.80
2022-08-17T00:08:43.677Z,4.27
2022-08-17T00:12:35.568Z,4.57
2022-08-17T00:15:13.400Z,5.20
2022-08-17T00:18:57.637Z,4.70
2022-08-17T00:22:31.732Z,4.85
2022-08-17T00:25:08.210Z,5.03
2022-08-17T00:28:11.054Z,5.13
2022-08-17T00:31:13.827Z,4.63
2022-08-17T00:34:16.847Z,4.85
2022-08-17T00:37:19.201Z,5.47
2022-08-17T00:40:21.882Z,5.53
2022-08-17T00:43:38.183Z,5.00
2022-08-17T00:46:42.435Z,5.28
2022-08-17T00:49:44.851Z,5.35
2022-08-17T00:52:56.378Z,4.72
2022-08-17T00:56:01.631Z,5.20
2022-08-17T00:59:06.714Z,5.03
2022-08-17T01:02:11.021Z,5.43
2022-08-17T01:05:18.676Z,4.78
2022-08-17T01:08:25.842Z,5.03
2022-08-17T01:11:30.262Z,5.00
2022-08-17T01:14:32.623Z,5.03
2022-08-17T01:17:35.027Z,5.05
2022-08-17T01:20:48.465Z,4.53
2022-08-17T01:23:51.323Z,4.95
2022-08-17T01:26:53.743Z,4.13
2022-08-17T01:30:04.475Z,4.60
2022-08-17T01:33:26.813Z,4.82
2022-08-17T01:36:29.310Z,4.72
2022-08-17T01:39:38.761Z,4.55
2022-08-17T01:43:01.495Z,4.20
2022-08-17T01:46:04.277Z,4.40
2022-08-17T01:49:10.037Z,4.25
2022-08-17T01:52:13.216Z,4.15
2022-08-17T01:55:18.138Z,4.78
2022-08-17T01:58:21.628Z,4.57
2022-08-17T02:01:27.115Z,4.53
2022-08-17T02:04:29.535Z,4.45
2022-08-17T02:07:31.900Z,4.20
2022-08-17T02:10:51.833Z,4.57
2022-08-17T02:14:02.396Z,5.03
2022-08-17T02:17:06.313Z,4.78
2022-08-17T02:20:10.126Z,4.75
2022-08-17T02:23:13.045Z,4.95
2022-08-17T02:26:23.813Z,4.30
2022-08-17T02:29:28.228Z,4.40
2022-08-17T02:32:30.608Z,4.40
2022-08-17T02:35:33.047Z,4.60
2022-08-17T02:38:37.129Z,4.50
2022-08-17T02:41:40.031Z,4.70
2022-08-17T02:44:42.774Z,4.57
2022-08-17T02:47:45.575Z,4.78
2022-08-17T02:50:49.145Z,4.32
2022-08-17T02:53:51.585Z,4.30
2022-08-17T02:56:54.043Z,4.43
2022-08-17T02:59:56.485Z,4.30
2022-08-17T03:02:58.910Z,4.30
2022-08-17T03:06:02.159Z,4.82
2022-08-17T03:09:04.878Z,4.38
2022-08-17T03:12:10.679Z,3.95
2022-08-17T03:15:17.632Z,4.13
2022-08-17T03:18:24.593Z,4.65
2022-08-17T03:21:28.207Z,4.68
2022-08-17T03:24:30.600Z,4.53
2022-08-17T03:27:33.004Z,4.40
2022-08-17T03:30:37.907Z,4.77
2022-08-17T03:33:40.307Z,4.40
2022-08-17T03:36:42.834Z,4.47
2022-08-17T03:39:45.263Z,4.65
2022-08-17T03:42:48.257Z,4.50
2022-08-17T03:46:27.103Z,4.33
2022-08-17T03:49:49.996Z,4.32
2022-08-17T03:53:10.991Z,4.38
2022-08-17T03:56:31.956Z,4.43
2022-08-17T03:59:35.851Z,4.40
2022-08-17T04:02:38.260Z,4.57
2022-08-17T04:05:40.794Z,4.68
2022-08-17T04:08:43.204Z,4.75
2022-08-17T04:11:45.744Z,4.47
2022-08-17T04:14:53.426Z,4.40
2022-08-17T04:17:57.391Z,4.50
2022-08-17T04:21:03.679Z,4.43
2022-08-17T04:24:06.347Z,4.45
2022-08-17T04:27:09.653Z,4.68
2022-08-17T04:30:12.555Z,4.68
2022-08-17T04:33:18.255Z,4.40
2022-08-17T04:36:21.195Z,4.50
2022-08-17T04:39:26.195Z,4.53
2022-08-17T04:42:28.673Z,4.00
2022-08-17T04:45:32.224Z,4.20
2022-08-17T04:48:38.715Z,4.50
2022-08-17T04:51:56.269Z,5.30
2022-08-17T04:55:04.139Z,6.65
2022-08-17T04:58:07.045Z,6.30
2022-08-17T05:01:09.767Z,5.90
2022-08-17T05:04:33.006Z,5.27
2022-08-17T05:07:37.658Z,4.60
2022-08-17T05:10:45.187Z,5.10
2022-08-17T05:13:50.272Z,4.57
2022-08-17T05:16:52.953Z,4.50
2022-08-17T05:19:55.389Z,4.00
2022-08-17T05:23:01.779Z,4.70
2022-08-17T05:26:04.396Z,4.40
2022-08-17T05:29:10.266Z,4.18
2022-08-17T05:32:39.571Z,4.32
2022-08-17T05:35:40.340Z,4.40
2022-08-17T05:38:42.911Z,4.05
2022-08-17T05:41:47.651Z,4.97
2022-08-17T05:44:50.008Z,4.47
2022-08-17T05:47:52.332Z,4.80
2022-08-17T05:51:17.585Z,4.63
2022-08-17T05:54:39.540Z,4.50
2022-08-17T05:58:00.628Z,4.85
2022-08-17T06:01:06.909Z,6.97
2022-08-17T06:04:40.148Z,5.18
2022-08-17T06:08:07.266Z,5.63
2022-08-17T06:11:24.664Z,4.90
2022-08-17T06:14:44.668Z,5.72
2022-08-17T06:17:47.253Z,5.15
2022-08-17T06:20:55.295Z,5.07
2022-08-17T06:24:05.825Z,4.90
2022-08-17T06:27:34.133Z,4.90
2022-08-17T06:30:59.884Z,5.40
2022-08-17T06:34:07.149Z,5.30
2022-08-17T06:37:15.523Z,5.50
2022-08-17T06:40:29.233Z,5.50
2022-08-17T06:43:56.885Z,5.30
2022-08-17T06:47:09.069Z,5.47
2022-08-17T06:50:26.434Z,5.50
2022-08-17T06:53:46.518Z,5.68
2022-08-17T06:56:55.809Z,5.73
2022-08-17T07:00:08.215Z,5.80
2022-08-17T07:03:37.614Z,5.97
2022-08-17T07:06:52.464Z,5.70
2022-08-17T07:09:58.615Z,5.55
2022-08-17T07:13:11.994Z,5.77
2022-08-17T07:16:28.808Z,5.65
2022-08-17T07:19:33.713Z,5.30
2022-08-17T07:22:50.376Z,5.93
2022-08-17T07:26:07.556Z,5.63
2022-08-17T07:29:16.374Z,5.90
2022-08-17T07:32:23.132Z,5.10
2022-08-17T07:35:37.541Z,5.70
2022-08-17T07:38:56.733Z,5.60
2022-08-17T07:42:03.872Z,5.57
2022-08-17T07:45:28.076Z,5.37
2022-08-17T07:48:36.567Z,5.78
2022-08-17T07:51:47.929Z,5.43
2022-08-17T07:54:50.409Z,5.70
2022-08-17T07:57:59.138Z,5.70
2022-08-17T08:01:15.290Z,5.90
2022-08-17T08:08:25.214Z,6.15
2022-08-17T08:11:36.534Z,5.30
2022-08-17T08:14:39.986Z,5.78
2022-08-17T08:17:55.419Z,5.67
2022-08-17T08:21:04.907Z,5.65
2022-08-17T08:24:21.902Z,5.63
2022-08-17T08:27:41.820Z,5.90
2022-08-17T08:30:49.538Z,5.55
2022-08-17T08:34:44.625Z,5.67
2022-08-17T08:37:50.356Z,5.22
2022-08-17T08:41:12.364Z,5.25
2022-08-17T08:45:00.718Z,5.65
2022-08-17T08:48:22.992Z,5.68
2022-08-17T08:51:52.586Z,5.03
2022-08-17T08:55:05.292Z,5.10
2022-08-17T08:58:32.022Z,5.53
2022-08-17T09:02:01.314Z,5.60
2022-08-17T09:05:14.698Z,5.47
2022-08-17T09:08:59.845Z,5.10
2022-08-17T09:12:13.999Z,5.32
2022-08-17T09:15:28.519Z,5.60
2022-08-17T09:19:02.676Z,6.25
2022-08-17T09:22:18.724Z,5.32
2022-08-17T09:25:28.449Z,5.20
2022-08-17T09:28:36.425Z,5.30
2022-08-17T09:31:49.451Z,5.03
2022-08-17T09:34:56.614Z,5.40
2022-08-17T09:38:14.924Z,5.30
2022-08-17T09:41:26.858Z,5.80
2022-08-17T09:44:59.515Z,5.45
2022-08-17T09:48:23.281Z,5.22
2022-08-17T09:51:31.998Z,5.70
2022-08-17T09:54:39.513Z,5.63
2022-08-17T09:58:10.589Z,5.47
2022-08-17T10:01:36.681Z,5.03
2022-08-17T10:05:08.871Z,5.10
2022-08-17T10:08:30.017Z,5.28
2022-08-17T10:12:01.122Z,6.05
2022-08-17T10:15:36.784Z,5.23
2022-08-17T10:19:05.079Z,5.10
2022-08-17T10:22:37.915Z,5.38
2022-08-17T10:26:13.952Z,5.07
2022-08-17T10:29:28.842Z,5.25
2022-08-17T10:32:40.801Z,5.40
2022-08-17T10:36:11.218Z,5.47
2022-08-17T10:39:24.727Z,5.00
2022-08-17T10:42:36.309Z,5.10
2022-08-17T10:46:09.449Z,5.00
2022-08-17T10:49:34.033Z,5.30
2022-08-17T10:52:42.366Z,5.40
2022-08-17T10:56:13.409Z,5.10
2022-08-17T10:59:34.614Z,4.57
2022-08-17T11:02:51.233Z,4.55
2022-08-17T11:06:15.667Z,4.73
2022-08-17T11:09:48.097Z,4.50
2022-08-17T11:13:07.704Z,4.47
2022-08-17T11:16:47.917Z,4.97
2022-08-17T11:19:56.180Z,4.32
2022-08-17T11:22:59.073Z,4.60
2022-08-17T11:26:08.131Z,4.72
2022-08-17T11:29:27.580Z,4.47
2022-08-17T11:32:37.430Z,4.65
2022-08-17T11:35:51.254Z,4.28
2022-08-17T11:38:57.991Z,4.30
2022-08-17T11:42:06.068Z,5.10
2022-08-17T11:45:39.159Z,4.60
2022-08-17T11:49:34.671Z,4.57
2022-08-17T11:52:44.535Z,4.85
2022-08-17T11:55:52.503Z,4.80
2022-08-17T11:58:55.444Z,4.93
2022-08-17T12:01:58.566Z,4.55
2022-08-17T12:05:23.358Z,4.50
2022-08-17T12:08:27.660Z,4.30
2022-08-17T12:11:55.575Z,4.17
2022-08-17T12:15:16.704Z,5.07
2022-08-17T12:18:27.836Z,4.75
2022-08-17T12:21:46.195Z,4.97
2022-08-17T12:25:19.645Z,4.50
2022-08-17T12:28:28.678Z,4.87
2022-08-17T12:31:43.194Z,4.70
2022-08-17T12:34:47.834Z,5.00
2022-08-17T12:37:50.819Z,4.88
2022-08-17T12:40:58.105Z,5.03
2022-08-17T12:44:12.301Z,4.60
2022-08-17T12:47:22.778Z,4.82
2022-08-17T12:50:28.177Z,3.97
2022-08-17T12:53:35.814Z,3.83
2022-08-17T12:56:38.351Z,4.70
2022-08-17T12:59:48.798Z,4.57
2022-08-17T13:02:54.605Z,3.70
2022-08-17T13:06:02.501Z,3.75
2022-08-17T13:09:18.881Z,4.10
2022-08-17T13:12:34.947Z,4.80
2022-08-17T13:15:44.805Z,5.00
2022-08-17T13:18:52.722Z,4.72
2022-08-17T13:21:59.113Z,4.63
2022-08-17T13:25:06.303Z,5.13
2022-08-17T13:28:18.894Z,4.82
2022-08-17T13:31:51.956Z,5.03
2022-08-17T13:35:12.013Z,3.75
2022-08-17T13:38:45.506Z,3.60
2022-08-17T13:41:49.792Z,3.50
2022-08-17T13:44:52.282Z,4.75
2022-08-17T13:48:28.460Z,4.80
2022-08-17T13:51:35.048Z,4.28
2022-08-17T13:54:38.279Z,4.45
2022-08-17T13:57:46.521Z,3.60
2022-08-17T14:00:51.590Z,3.80
2022-08-17T14:03:53.965Z,5.00
2022-08-17T14:07:04.138Z,4.82
2022-08-17T14:10:16.130Z,4.97
2022-08-17T14:13:18.764Z,4.50
2022-08-17T14:16:22.241Z,5.20
2022-08-17T14:19:25.626Z,5.10
2022-08-17T14:22:31.346Z,4.03
2022-08-17T14:25:34.470Z,4.05
2022-08-17T14:28:38.700Z,5.18
2022-08-17T14:32:00.424Z,5.45
2022-08-17T14:35:05.148Z,5.27
2022-08-17T14:38:07.952Z,5.65
2022-08-17T14:41:10.791Z,4.32
2022-08-17T14:44:13.311Z,5.20
2022-08-17T14:47:15.938Z,5.40
2022-08-17T14:50:21.132Z,4.60
2022-08-17T14:53:24.828Z,5.35
2022-08-17T14:56:27.352Z,5.30
2022-08-17T14:59:35.603Z,4.90
2022-08-17T15:02:56.187Z,5.10
2022-08-17T15:05:59.175Z,3.80
2022-08-17T15:09:02.350Z,4.47
2022-08-17T15:12:06.550Z,4.60
2022-08-17T15:15:11.474Z,4.53
2022-08-17T15:18:14.586Z,4.90
2022-08-17T15:21:18.204Z,5.10
2022-08-17T15:24:20.667Z,4.90
2022-08-17T15:27:24.345Z,4.95
2022-08-17T15:30:36.158Z,4.60
2022-08-17T15:33:38.774Z,4.68
2022-08-17T15:36:41.404Z,3.00
2022-08-17T15:39:52.254Z,3.80
2022-08-17T15:42:54.791Z,4.53
2022-08-17T15:46:12.529Z,3.95
2022-08-17T15:49:14.973Z,3.30
2022-08-17T15:52:21.672Z,3.03
2022-08-17T15:55:25.755Z,3.80
2022-08-17T15:58:30.005Z,3.10
2022-08-17T16:03:01.234Z,2.90
2022-08-17T16:05:14.009Z,3.10
2022-08-17T16:08:21.271Z,2.90
2022-08-17T16:11:24.436Z,3.20
2022-08-17T16:14:33.946Z,3.03
2022-08-17T16:17:49.377Z,3.17
2022-08-17T16:20:52.087Z,2.95
2022-08-17T16:23:58.823Z,3.30
2022-08-17T16:27:01.309Z,3.30
2022-08-17T16:30:08.229Z,3.30
2022-08-17T16:33:11.665Z,3.25
2022-08-17T16:36:14.084Z,3.28
2022-08-17T16:39:16.619Z,3.10
2022-08-17T16:42:33.752Z,3.15
2022-08-17T16:45:40.349Z,3.00
2022-08-17T16:48:46.363Z,3.33
2022-08-17T16:51:48.798Z,5.57
2022-08-17T16:54:52.210Z,4.20
2022-08-17T16:57:54.541Z,4.55
2022-08-17T17:00:59.391Z,4.40
2022-08-17T17:04:04.507Z,4.00
2022-08-17T17:07:25.688Z,3.90
2022-08-17T17:10:40.791Z,3.93
2022-08-17T17:13:56.592Z,3.97
2022-08-17T17:16:58.894Z,3.70
2022-08-17T17:20:18.323Z,3.22
2022-08-17T17:23:40.109Z,3.25
2022-08-17T17:26:43.165Z,3.80
2022-08-17T17:29:52.762Z,3.65
2022-08-17T17:33:13.045Z,4.10
2022-08-17T17:36:38.348Z,4.05
2022-08-17T17:39:46.514Z,4.13
2022-08-17T17:42:55.394Z,3.80
2022-08-17T17:46:21.883Z,3.60
2022-08-17T17:49:30.994Z,3.35
2022-08-17T17:52:37.798Z,3.38
2022-08-17T17:56:34.281Z,3.78
2022-08-17T18:00:06.416Z,3.60
2022-08-17T18:03:50.665Z,3.88
2022-08-17T18:06:58.627Z,3.55
2022-08-17T18:10:30.446Z,4.00
2022-08-17T18:14:14.454Z,3.78
2022-08-17T18:17:18.089Z,3.67
2022-08-17T18:20:43.135Z,4.03
2022-08-17T18:23:50.874Z,3.38
2022-08-17T18:26:56.328Z,4.50
2022-08-17T18:30:18.708Z,4.15
2022-08-17T18:33:23.740Z,4.47
2022-08-17T18:36:39.896Z,3.88
2022-08-17T18:39:42.551Z,4.70
2022-08-17T18:43:04.826Z,4.30
2022-08-17T18:46:28.659Z,4.10
2022-08-17T18:49:31.785Z,4.40
2022-08-17T18:52:34.291Z,4.28
2022-08-17T18:55:38.034Z,4.53
2022-08-17T18:58:41.121Z,4.90
2022-08-17T19:02:16.110Z,4.97
2022-08-17T19:05:33.001Z,4.80
2022-08-17T19:08:36.116Z,5.60
2022-08-17T19:11:39.710Z,7.43
2022-08-17T19:14:43.565Z,7.22
2022-08-17T19:17:55.345Z,6.72
2022-08-17T19:21:13.534Z,6.40
2022-08-17T19:24:19.958Z,6.68
2022-08-17T19:27:49.110Z,6.43
2022-08-17T19:31:04.021Z,5.93
2022-08-17T19:34:06.593Z,6.28
2022-08-17T19:37:27.566Z,5.47
2022-08-17T19:40:54.128Z,5.50
2022-08-17T19:44:35.641Z,5.40
2022-08-17T19:47:55.155Z,5.20
2022-08-17T19:51:06.582Z,4.90
2022-08-17T19:54:34.089Z,5.90
2022-08-17T19:58:02.291Z,5.07
2022-08-17T20:01:07.163Z,4.90
2022-08-17T20:04:16.680Z,4.88
2022-08-17T20:07:26.160Z,4.68
2022-08-17T20:10:57.955Z,4.70
2022-08-17T20:14:15.684Z,5.50
2022-08-17T20:17:18.495Z,5.32
2022-08-17T20:20:50.675Z,4.93
2022-08-17T20:24:12.904Z,4.65
2022-08-17T20:27:20.360Z,4.83
2022-08-17T20:30:23.237Z,5.30
2022-08-17T20:33:37.428Z,5.15
2022-08-17T20:36:57.341Z,4.80
2022-08-17T20:39:59.821Z,4.63
2022-08-17T20:43:30.057Z,4.73
2022-08-17T20:46:38.605Z,4.55
2022-08-17T20:49:47.207Z,4.47
2022-08-17T20:52:55.732Z,4.50
2022-08-17T20:55:58.193Z,4.82
2022-08-17T20:59:00.850Z,4.03
2022-08-17T21:02:18.539Z,3.97
2022-08-17T21:05:37.235Z,3.92
2022-08-17T21:08:58.698Z,3.67
2022-08-17T21:12:04.873Z,3.75
2022-08-17T21:15:39.858Z,3.70
2022-08-17T21:18:57.439Z,3.65
2022-08-17T21:22:16.678Z,3.97
2022-08-17T21:25:25.036Z,3.67
2022-08-17T21:28:34.141Z,3.70
2022-08-17T21:31:47.946Z,3.63
2022-08-17T21:35:30.139Z,3.85
2022-08-17T21:38:38.081Z,3.50
2022-08-17T21:41:57.414Z,3.50
2022-08-17T21:45:10.262Z,3.33
2022-08-17T21:48:21.843Z,3.70
2022-08-17T21:51:28.133Z,3.40
2022-08-17T21:54:38.867Z,3.75
2022-08-17T21:57:41.867Z,3.83
2022-08-17T22:01:21.932Z,3.58
2022-08-17T22:04:27.973Z,4.30
2022-08-17T22:07:42.034Z,3.58
2022-08-17T22:10:48.981Z,3.90
2022-08-17T22:13:51.430Z,3.67
2022-08-17T22:17:16.662Z,3.63
2022-08-17T22:20:21.189Z,3.70
2022-08-17T22:23:45.169Z,3.67
2022-08-17T22:27:11.637Z,3.35
2022-08-17T22:30:25.083Z,3.45
2022-08-17T22:33:33.535Z,3.55
2022-08-17T22:36:38.998Z,3.40
2022-08-17T22:39:41.555Z,3.75
2022-08-17T22:42:47.350Z,3.63
2022-08-17T22:45:54.576Z,3.78
2022-08-17T22:48:59.508Z,3.83
2022-08-17T22:52:05.280Z,3.50
2022-08-17T22:55:32.652Z,3.72
2022-08-17T22:58:59.696Z,3.65
2022-08-17T23:02:31.477Z,4.00
2022-08-17T23:05:34.153Z,3.88
2022-08-17T23:08:50.212Z,3.67
2022-08-17T23:11:59.014Z,3.67
2022-08-17T23:15:02.286Z,3.30
2022-08-17T23:18:05.287Z,3.85
2022-08-17T23:21:07.770Z,3.63
2022-08-17T23:24:13.856Z,3.60
2022-08-17T23:27:18.045Z,3.22
2022-08-17T23:30:27.210Z,3.78
2022-08-17T23:33:34.277Z,3.78
2022-08-17T23:36:36.633Z,3.30
2022-08-17T23:39:39.717Z,3.80
2022-08-17T23:42:43.806Z,3.65
2022-08-17T23:45:49.605Z,3.85
2022-08-17T23:48:53.975Z,3.60
2022-08-17T23:51:56.622Z,4.00
2022-08-17T23:54:59.398Z,3.70
2022-08-17T23:58:05.563Z,3.70
